sensor_id;sensor_type;location;lat;lon;timestamp;temperature;humidity
44565;DHT22;30275;51.822;-0.326;2022-10-16T00:01:05;11.70;99.90
44565;DHT22;30275;51.822;-0.326;2022-10-16T00:03:31;11.70;99.90
44565;DHT22;30275;51.822;-0.326;2022-10-16T00:05:59;11.70;99.90
44565;DHT22;30275;51.822;-0.326;2022-10-16T00:08:26;11.70;99.90
44565;DHT22;30275;51.822;-0.326;2022-10-16T00:10:51;11.60;99.90
44565;DHT22;30275;51.822;-0.326;2022-10-16T00:13:17;11.60;99.90
44565;DHT22;30275;51.822;-0.326;2022-10-16T00:15:45;11.60;99.90
44565;DHT22;30275;51.822;-0.326;2022-10-16T00:18:12;11.50;99.90
44565;DHT22;30275;51.822;-0.326;2022-10-16T00:20:38;11.50;99.90
44565;DHT22;30275;51.822;-0.326;2022-10-16T00:23:04;11.50;99.90
44565;DHT22;30275;51.822;-0.326;2022-10-16T00:25:30;11.40;99.90
44565;DHT22;30275;51.822;-0.326;2022-10-16T00:27:58;11.40;99.90
44565;DHT22;30275;51.822;-0.326;2022-10-16T00:30:24;11.40;99.90
44565;DHT22;30275;51.822;-0.326;2022-10-16T00:32:52;11.40;99.90
44565;DHT22;30275;51.822;-0.326;2022-10-16T00:35:17;11.40;99.90
44565;DHT22;30275;51.822;-0.326;2022-10-16T00:37:43;11.40;99.90
44565;DHT22;30275;51.822;-0.326;2022-10-16T00:40:12;11.30;99.90
44565;DHT22;30275;51.822;-0.326;2022-10-16T00:42:38;11.30;99.90
44565;DHT22;30275;51.822;-0.326;2022-10-16T00:45:04;11.30;99.90
44565;DHT22;30275;51.822;-0.326;2022-10-16T00:47:42;11.40;99.90
44565;DHT22;30275;51.822;-0.326;2022-10-16T00:52:50;11.40;99.90
44565;DHT22;30275;51.822;-0.326;2022-10-16T00:55:17;11.40;99.90
44565;DHT22;30275;51.822;-0.326;2022-10-16T00:57:44;11.40;99.90
44565;DHT22;30275;51.822;-0.326;2022-10-16T01:00:13;11.50;99.90
44565;DHT22;30275;51.822;-0.326;2022-10-16T01:02:39;11.40;99.90
44565;DHT22;30275;51.822;-0.326;2022-10-16T01:05:05;11.40;99.90
44565;DHT22;30275;51.822;-0.326;2022-10-16T01:07:45;11.50;99.90
44565;DHT22;30275;51.822;-0.326;2022-10-16T01:13:11;11.50;99.90
44565;DHT22;30275;51.822;-0.326;2022-10-16T01:20:46;11.50;99.90
44565;DHT22;30275;51.822;-0.326;2022-10-16T01:31:09;11.40;99.90
44565;DHT22;30275;51.822;-0.326;2022-10-16T01:33:42;11.40;99.90
44565;DHT22;30275;51.822;-0.326;2022-10-16T01:36:14;11.40;99.90
44565;DHT22;30275;51.822;-0.326;2022-10-16T01:38:42;11.40;99.90
44565;DHT22;30275;51.822;-0.326;2022-10-16T01:42:00;11.50;99.90
44565;DHT22;30275;51.822;-0.326;2022-10-16T01:44:19;11.50;99.90
44565;DHT22;30275;51.822;-0.326;2022-10-16T01:46:49;11.60;99.90
44565;DHT22;30275;51.822;-0.326;2022-10-16T01:49:16;11.60;99.90
44565;DHT22;30275;51.822;-0.326;2022-10-16T01:51:45;12.50;99.90
44565;DHT22;30275;51.822;-0.326;2022-10-16T01:54:13;13.70;99.90
44565;DHT22;30275;51.822;-0.326;2022-10-16T01:56:41;14.50;99.90
44565;DHT22;30275;51.822;-0.326;2022-10-16T01:59:14;15.00;99.90
44565;DHT22;30275;51.822;-0.326;2022-10-16T02:01:42;15.60;99.90
44565;DHT22;30275;51.822;-0.326;2022-10-16T02:04:23;16.20;99.90
44565;DHT22;30275;51.822;-0.326;2022-10-16T02:06:50;16.50;99.90
44565;DHT22;30275;51.822;-0.326;2022-10-16T02:09:16;16.80;99.90
44565;DHT22;30275;51.822;-0.326;2022-10-16T02:11:43;17.10;99.90
44565;DHT22;30275;51.822;-0.326;2022-10-16T02:14:09;17.30;99.90
44565;DHT22;30275;51.822;-0.326;2022-10-16T02:16:43;17.40;99.90
44565;DHT22;30275;51.822;-0.326;2022-10-16T02:19:09;17.40;99.90
44565;DHT22;30275;51.822;-0.326;2022-10-16T02:21:44;17.40;99.90
44565;DHT22;30275;51.822;-0.326;2022-10-16T02:24:18;17.40;99.90
44565;DHT22;30275;51.822;-0.326;2022-10-16T02:27:14;17.50;99.90
44565;DHT22;30275;51.822;-0.326;2022-10-16T02:29:46;17.60;99.90
44565;DHT22;30275;51.822;-0.326;2022-10-16T02:32:19;17.70;99.90
44565;DHT22;30275;51.822;-0.326;2022-10-16T02:34:48;17.70;99.90
44565;DHT22;30275;51.822;-0.326;2022-10-16T02:37:15;17.60;99.90
44565;DHT22;30275;51.822;-0.326;2022-10-16T02:39:41;17.50;99.90
44565;DHT22;30275;51.822;-0.326;2022-10-16T02:42:14;17.50;99.90
44565;DHT22;30275;51.822;-0.326;2022-10-16T02:44:40;17.50;99.90
44565;DHT22;30275;51.822;-0.326;2022-10-16T02:47:05;17.60;99.90
44565;DHT22;30275;51.822;-0.326;2022-10-16T02:49:31;17.60;99.90
44565;DHT22;30275;51.822;-0.326;2022-10-16T02:51:57;17.60;99.90
44565;DHT22;30275;51.822;-0.326;2022-10-16T02:54:22;17.70;99.90
44565;DHT22;30275;51.822;-0.326;2022-10-16T02:56:49;17.60;99.90
44565;DHT22;30275;51.822;-0.326;2022-10-16T02:59:14;17.60;99.90
44565;DHT22;30275;51.822;-0.326;2022-10-16T03:01:40;17.60;99.90
44565;DHT22;30275;51.822;-0.326;2022-10-16T03:04:05;17.60;99.90
44565;DHT22;30275;51.822;-0.326;2022-10-16T03:06:31;17.60;99.90
44565;DHT22;30275;51.822;-0.326;2022-10-16T03:08:57;17.50;99.90
44565;DHT22;30275;51.822;-0.326;2022-10-16T03:11:22;17.50;99.90
44565;DHT22;30275;51.822;-0.326;2022-10-16T03:13:48;17.50;99.90
44565;DHT22;30275;51.822;-0.326;2022-10-16T03:16:13;17.50;99.90
44565;DHT22;30275;51.822;-0.326;2022-10-16T03:18:39;17.60;99.90
44565;DHT22;30275;51.822;-0.326;2022-10-16T03:21:05;17.60;99.90
44565;DHT22;30275;51.822;-0.326;2022-10-16T03:23:30;17.60;99.90
44565;DHT22;30275;51.822;-0.326;2022-10-16T03:25:56;17.60;99.90
44565;DHT22;30275;51.822;-0.326;2022-10-16T03:28:21;17.50;99.90
44565;DHT22;30275;51.822;-0.326;2022-10-16T03:30:47;17.50;99.90
44565;DHT22;30275;51.822;-0.326;2022-10-16T03:33:13;17.40;99.90
44565;DHT22;30275;51.822;-0.326;2022-10-16T03:35:38;17.40;99.90
44565;DHT22;30275;51.822;-0.326;2022-10-16T03:38:04;17.40;99.90
44565;DHT22;30275;51.822;-0.326;2022-10-16T03:40:29;17.50;99.90
44565;DHT22;30275;51.822;-0.326;2022-10-16T03:42:57;17.50;99.90
44565;DHT22;30275;51.822;-0.326;2022-10-16T03:45:24;17.50;99.90
44565;DHT22;30275;51.822;-0.326;2022-10-16T03:47:49;17.50;99.90
44565;DHT22;30275;51.822;-0.326;2022-10-16T03:50:15;17.50;99.90
44565;DHT22;30275;51.822;-0.326;2022-10-16T03:52:41;17.50;99.90
44565;DHT22;30275;51.822;-0.326;2022-10-16T03:55:07;17.50;99.90
44565;DHT22;30275;51.822;-0.326;2022-10-16T03:57:33;17.50;99.90
44565;DHT22;30275;51.822;-0.326;2022-10-16T03:59:58;17.50;99.90
44565;DHT22;30275;51.822;-0.326;2022-10-16T04:02:24;17.60;99.90
44565;DHT22;30275;51.822;-0.326;2022-10-16T04:04:49;17.50;99.90
44565;DHT22;30275;51.822;-0.326;2022-10-16T04:07:15;17.50;99.90
44565;DHT22;30275;51.822;-0.326;2022-10-16T04:09:41;17.50;99.90
44565;DHT22;30275;51.822;-0.326;2022-10-16T04:12:07;17.50;99.90
44565;DHT22;30275;51.822;-0.326;2022-10-16T04:14:33;17.50;99.90
44565;DHT22;30275;51.822;-0.326;2022-10-16T04:16:59;17.50;99.90
44565;DHT22;30275;51.822;-0.326;2022-10-16T04:19:24;17.50;99.90
44565;DHT22;30275;51.822;-0.326;2022-10-16T04:21:50;17.40;99.90
44565;DHT22;30275;51.822;-0.326;2022-10-16T04:24:16;17.40;99.90
44565;DHT22;30275;51.822;-0.326;2022-10-16T04:26:41;17.30;99.90
44565;DHT22;30275;51.822;-0.326;2022-10-16T04:29:07;17.30;99.90
44565;DHT22;30275;51.822;-0.326;2022-10-16T04:31:33;17.30;99.90
44565;DHT22;30275;51.822;-0.326;2022-10-16T04:33:58;17.30;99.90
44565;DHT22;30275;51.822;-0.326;2022-10-16T04:36:24;17.40;99.90
44565;DHT22;30275;51.822;-0.326;2022-10-16T04:38:50;17.40;99.90
44565;DHT22;30275;51.822;-0.326;2022-10-16T04:41:15;17.40;99.90
44565;DHT22;30275;51.822;-0.326;2022-10-16T04:43:41;17.40;99.90
44565;DHT22;30275;51.822;-0.326;2022-10-16T04:46:06;17.30;99.90
44565;DHT22;30275;51.822;-0.326;2022-10-16T04:48:32;17.30;99.90
44565;DHT22;30275;51.822;-0.326;2022-10-16T04:50:58;17.30;99.90
44565;DHT22;30275;51.822;-0.326;2022-10-16T04:53:23;17.40;99.90
44565;DHT22;30275;51.822;-0.326;2022-10-16T04:55:50;17.40;99.90
44565;DHT22;30275;51.822;-0.326;2022-10-16T04:58:16;17.40;99.90
44565;DHT22;30275;51.822;-0.326;2022-10-16T05:00:42;17.40;99.90
44565;DHT22;30275;51.822;-0.326;2022-10-16T05:03:07;17.40;99.90
44565;DHT22;30275;51.822;-0.326;2022-10-16T05:05:35;17.40;99.90
44565;DHT22;30275;51.822;-0.326;2022-10-16T05:08:02;17.40;99.90
44565;DHT22;30275;51.822;-0.326;2022-10-16T05:10:27;17.40;99.90
44565;DHT22;30275;51.822;-0.326;2022-10-16T05:12:53;17.40;99.90
44565;DHT22;30275;51.822;-0.326;2022-10-16T05:15:19;17.30;99.90
44565;DHT22;30275;51.822;-0.326;2022-10-16T05:17:45;17.30;99.90
44565;DHT22;30275;51.822;-0.326;2022-10-16T05:20:11;17.30;99.90
44565;DHT22;30275;51.822;-0.326;2022-10-16T05:22:37;17.20;99.90
44565;DHT22;30275;51.822;-0.326;2022-10-16T05:25:02;17.20;99.90
44565;DHT22;30275;51.822;-0.326;2022-10-16T05:27:28;17.30;99.90
44565;DHT22;30275;51.822;-0.326;2022-10-16T05:29:53;17.20;99.90
44565;DHT22;30275;51.822;-0.326;2022-10-16T05:32:19;17.30;99.90
44565;DHT22;30275;51.822;-0.326;2022-10-16T05:34:45;17.30;99.90
44565;DHT22;30275;51.822;-0.326;2022-10-16T05:37:11;17.30;99.90
44565;DHT22;30275;51.822;-0.326;2022-10-16T05:39:38;17.30;99.90
44565;DHT22;30275;51.822;-0.326;2022-10-16T05:42:04;17.30;99.90
44565;DHT22;30275;51.822;-0.326;2022-10-16T05:44:30;17.20;99.90
44565;DHT22;30275;51.822;-0.326;2022-10-16T05:46:55;17.20;99.90
44565;DHT22;30275;51.822;-0.326;2022-10-16T05:49:21;17.20;99.90
44565;DHT22;30275;51.822;-0.326;2022-10-16T05:51:46;17.20;99.90
44565;DHT22;30275;51.822;-0.326;2022-10-16T05:54:12;17.20;99.90
44565;DHT22;30275;51.822;-0.326;2022-10-16T05:56:38;17.20;99.90
44565;DHT22;30275;51.822;-0.326;2022-10-16T05:59:04;17.20;99.90
44565;DHT22;30275;51.822;-0.326;2022-10-16T06:01:29;17.20;99.90
44565;DHT22;30275;51.822;-0.326;2022-10-16T06:03:56;17.20;99.90
44565;DHT22;30275;51.822;-0.326;2022-10-16T06:06:24;17.10;99.90
44565;DHT22;30275;51.822;-0.326;2022-10-16T06:08:55;17.10;99.90
44565;DHT22;30275;51.822;-0.326;2022-10-16T06:11:26;17.10;99.90
44565;DHT22;30275;51.822;-0.326;2022-10-16T06:13:54;17.00;99.90
44565;DHT22;30275;51.822;-0.326;2022-10-16T06:16:22;17.00;99.90
44565;DHT22;30275;51.822;-0.326;2022-10-16T06:18:50;17.00;99.90
44565;DHT22;30275;51.822;-0.326;2022-10-16T06:21:24;17.00;99.90
44565;DHT22;30275;51.822;-0.326;2022-10-16T06:23:51;17.00;99.90
44565;DHT22;30275;51.822;-0.326;2022-10-16T06:26:19;17.00;99.90
44565;DHT22;30275;51.822;-0.326;2022-10-16T06:28:45;17.10;99.90
44565;DHT22;30275;51.822;-0.326;2022-10-16T06:31:11;17.00;99.90
44565;DHT22;30275;51.822;-0.326;2022-10-16T06:33:38;17.00;99.90
44565;DHT22;30275;51.822;-0.326;2022-10-16T06:36:06;17.00;99.90
44565;DHT22;30275;51.822;-0.326;2022-10-16T06:38:32;17.00;99.90
44565;DHT22;30275;51.822;-0.326;2022-10-16T06:40:58;17.00;99.90
44565;DHT22;30275;51.822;-0.326;2022-10-16T06:43:24;17.00;99.90
44565;DHT22;30275;51.822;-0.326;2022-10-16T06:45:54;17.00;99.90
44565;DHT22;30275;51.822;-0.326;2022-10-16T06:48:21;17.10;99.90
44565;DHT22;30275;51.822;-0.326;2022-10-16T06:53:30;17.20;99.90
44565;DHT22;30275;51.822;-0.326;2022-10-16T06:55:56;17.30;99.90
44565;DHT22;30275;51.822;-0.326;2022-10-16T06:58:22;17.40;99.90
44565;DHT22;30275;51.822;-0.326;2022-10-16T07:00:48;17.40;99.90
44565;DHT22;30275;51.822;-0.326;2022-10-16T07:03:14;17.50;99.90
44565;DHT22;30275;51.822;-0.326;2022-10-16T07:05:41;17.50;99.90
44565;DHT22;30275;51.822;-0.326;2022-10-16T07:08:08;17.50;99.90
44565;DHT22;30275;51.822;-0.326;2022-10-16T07:10:34;17.60;99.90
44565;DHT22;30275;51.822;-0.326;2022-10-16T07:13:00;17.60;99.90
44565;DHT22;30275;51.822;-0.326;2022-10-16T07:15:26;17.60;99.90
44565;DHT22;30275;51.822;-0.326;2022-10-16T07:17:51;17.70;99.90
44565;DHT22;30275;51.822;-0.326;2022-10-16T07:20:17;17.80;99.90
44565;DHT22;30275;51.822;-0.326;2022-10-16T07:22:43;17.90;99.90
44565;DHT22;30275;51.822;-0.326;2022-10-16T07:25:09;18.00;99.90
44565;DHT22;30275;51.822;-0.326;2022-10-16T07:27:35;18.10;99.90
44565;DHT22;30275;51.822;-0.326;2022-10-16T07:30:00;18.10;99.90
44565;DHT22;30275;51.822;-0.326;2022-10-16T07:32:26;18.20;99.90
44565;DHT22;30275;51.822;-0.326;2022-10-16T07:34:53;18.30;99.90
44565;DHT22;30275;51.822;-0.326;2022-10-16T07:37:18;18.40;99.90
44565;DHT22;30275;51.822;-0.326;2022-10-16T07:39:44;18.50;99.90
44565;DHT22;30275;51.822;-0.326;2022-10-16T07:42:09;18.60;99.90
44565;DHT22;30275;51.822;-0.326;2022-10-16T07:44:35;18.60;99.90
44565;DHT22;30275;51.822;-0.326;2022-10-16T07:47:01;18.70;99.90
44565;DHT22;30275;51.822;-0.326;2022-10-16T07:49:27;18.90;99.90
44565;DHT22;30275;51.822;-0.326;2022-10-16T07:51:52;19.00;99.90
44565;DHT22;30275;51.822;-0.326;2022-10-16T07:54:18;19.10;99.90
44565;DHT22;30275;51.822;-0.326;2022-10-16T07:56:44;19.20;99.90
44565;DHT22;30275;51.822;-0.326;2022-10-16T07:59:09;19.30;99.90
44565;DHT22;30275;51.822;-0.326;2022-10-16T08:01:35;19.50;99.90
44565;DHT22;30275;51.822;-0.326;2022-10-16T08:04:01;19.50;99.90
44565;DHT22;30275;51.822;-0.326;2022-10-16T08:06:26;19.60;99.90
44565;DHT22;30275;51.822;-0.326;2022-10-16T08:08:52;19.60;99.90
44565;DHT22;30275;51.822;-0.326;2022-10-16T08:11:17;19.60;99.90
44565;DHT22;30275;51.822;-0.326;2022-10-16T08:13:43;19.80;99.90
44565;DHT22;30275;51.822;-0.326;2022-10-16T08:16:09;20.10;99.90
44565;DHT22;30275;51.822;-0.326;2022-10-16T08:18:39;20.40;99.90
44565;DHT22;30275;51.822;-0.326;2022-10-16T08:21:06;20.60;99.90
44565;DHT22;30275;51.822;-0.326;2022-10-16T08:23:33;21.00;99.90
44565;DHT22;30275;51.822;-0.326;2022-10-16T08:26:06;21.50;99.90
44565;DHT22;30275;51.822;-0.326;2022-10-16T08:28:32;21.80;99.90
44565;DHT22;30275;51.822;-0.326;2022-10-16T08:31:08;22.10;98.30
44565;DHT22;30275;51.822;-0.326;2022-10-16T08:33:34;22.30;98.70
44565;DHT22;30275;51.822;-0.326;2022-10-16T08:36:03;22.40;98.40
44565;DHT22;30275;51.822;-0.326;2022-10-16T08:38:29;22.60;92.00
44565;DHT22;30275;51.822;-0.326;2022-10-16T08:43:52;22.50;97.20
44565;DHT22;30275;51.822;-0.326;2022-10-16T08:49:19;22.70;96.50
44565;DHT22;30275;51.822;-0.326;2022-10-16T08:51:45;22.70;97.30
44565;DHT22;30275;51.822;-0.326;2022-10-16T08:54:22;22.60;97.50
44565;DHT22;30275;51.822;-0.326;2022-10-16T08:56:54;22.70;96.90
44565;DHT22;30275;51.822;-0.326;2022-10-16T08:59:20;22.90;96.90
44565;DHT22;30275;51.822;-0.326;2022-10-16T09:01:49;22.80;97.00
44565;DHT22;30275;51.822;-0.326;2022-10-16T09:04:48;22.80;97.10
44565;DHT22;30275;51.822;-0.326;2022-10-16T09:12:45;23.20;95.90
44565;DHT22;30275;51.822;-0.326;2022-10-16T09:18:22;23.90;93.30
44565;DHT22;30275;51.822;-0.326;2022-10-16T09:23:43;24.20;93.00
44565;DHT22;30275;51.822;-0.326;2022-10-16T09:26:12;24.70;87.30
44565;DHT22;30275;51.822;-0.326;2022-10-16T09:28:38;25.40;90.40
44565;DHT22;30275;51.822;-0.326;2022-10-16T09:31:03;26.10;87.10
44565;DHT22;30275;51.822;-0.326;2022-10-16T09:33:36;26.70;87.00
44565;DHT22;30275;51.822;-0.326;2022-10-16T09:36:04;26.80;82.30
44565;DHT22;30275;51.822;-0.326;2022-10-16T09:38:35;27.10;80.70
44565;DHT22;30275;51.822;-0.326;2022-10-16T09:41:15;27.20;78.80
44565;DHT22;30275;51.822;-0.326;2022-10-16T09:43:56;28.20;76.50
44565;DHT22;30275;51.822;-0.326;2022-10-16T09:46:30;28.40;75.00
44565;DHT22;30275;51.822;-0.326;2022-10-16T09:48:59;28.30;74.70
44565;DHT22;30275;51.822;-0.326;2022-10-16T09:51:36;28.10;74.20
44565;DHT22;30275;51.822;-0.326;2022-10-16T09:54:14;28.60;72.60
44565;DHT22;30275;51.822;-0.326;2022-10-16T09:56:40;28.20;73.40
44565;DHT22;30275;51.822;-0.326;2022-10-16T09:59:16;28.70;71.60
44565;DHT22;30275;51.822;-0.326;2022-10-16T10:01:52;29.60;72.80
44565;DHT22;30275;51.822;-0.326;2022-10-16T10:04:19;28.50;71.00
44565;DHT22;30275;51.822;-0.326;2022-10-16T10:06:52;26.80;73.10
44565;DHT22;30275;51.822;-0.326;2022-10-16T10:09:26;26.00;74.70
44565;DHT22;30275;51.822;-0.326;2022-10-16T10:17:12;26.70;72.90
44565;DHT22;30275;51.822;-0.326;2022-10-16T10:19:58;26.40;74.20
44565;DHT22;30275;51.822;-0.326;2022-10-16T10:22:29;26.90;74.90
44565;DHT22;30275;51.822;-0.326;2022-10-16T10:25:12;27.00;75.20
44565;DHT22;30275;51.822;-0.326;2022-10-16T10:33:15;27.50;74.20
44565;DHT22;30275;51.822;-0.326;2022-10-16T10:36:10;27.60;71.30
44565;DHT22;30275;51.822;-0.326;2022-10-16T10:38:54;27.30;72.50
44565;DHT22;30275;51.822;-0.326;2022-10-16T10:44:54;27.10;73.60
44565;DHT22;30275;51.822;-0.326;2022-10-16T10:55:45;24.50;77.10
44565;DHT22;30275;51.822;-0.326;2022-10-16T11:01:13;23.20;76.60
44565;DHT22;30275;51.822;-0.326;2022-10-16T11:09:12;21.50;81.60
44565;DHT22;30275;51.822;-0.326;2022-10-16T11:11:51;21.40;84.00
44565;DHT22;30275;51.822;-0.326;2022-10-16T11:14:28;20.80;82.20
44565;DHT22;30275;51.822;-0.326;2022-10-16T11:19:50;20.20;87.30
44565;DHT22;30275;51.822;-0.326;2022-10-16T11:22:33;20.30;86.50
44565;DHT22;30275;51.822;-0.326;2022-10-16T11:25:24;20.50;87.10
44565;DHT22;30275;51.822;-0.326;2022-10-16T11:27:52;20.60;83.60
44565;DHT22;30275;51.822;-0.326;2022-10-16T11:30:29;20.60;86.50
44565;DHT22;30275;51.822;-0.326;2022-10-16T11:33:10;20.60;86.70
44565;DHT22;30275;51.822;-0.326;2022-10-16T11:39:00;20.90;82.80
44565;DHT22;30275;51.822;-0.326;2022-10-16T11:41:43;20.30;85.80
44565;DHT22;30275;51.822;-0.326;2022-10-16T11:46:48;19.00;86.10
44565;DHT22;30275;51.822;-0.326;2022-10-16T11:49:19;18.60;90.20
44565;DHT22;30275;51.822;-0.326;2022-10-16T11:54:22;19.40;89.70
44565;DHT22;30275;51.822;-0.326;2022-10-16T11:56:54;19.70;86.90
44565;DHT22;30275;51.822;-0.326;2022-10-16T11:59:55;19.50;88.80
44565;DHT22;30275;51.822;-0.326;2022-10-16T12:02:40;19.70;86.80
44565;DHT22;30275;51.822;-0.326;2022-10-16T12:08:13;19.60;88.70
44565;DHT22;30275;51.822;-0.326;2022-10-16T12:10:41;19.20;86.50
44565;DHT22;30275;51.822;-0.326;2022-10-16T12:13:46;19.20;91.10
44565;DHT22;30275;51.822;-0.326;2022-10-16T12:18:44;19.80;90.40
44565;DHT22;30275;51.822;-0.326;2022-10-16T12:21:14;19.60;86.20
44565;DHT22;30275;51.822;-0.326;2022-10-16T12:23:51;19.50;87.60
44565;DHT22;30275;51.822;-0.326;2022-10-16T12:26:32;19.40;87.10
44565;DHT22;30275;51.822;-0.326;2022-10-16T12:31:59;19.10;85.50
44565;DHT22;30275;51.822;-0.326;2022-10-16T12:37:21;19.40;88.40
44565;DHT22;30275;51.822;-0.326;2022-10-16T12:39:49;19.40;86.10
44565;DHT22;30275;51.822;-0.326;2022-10-16T12:44:52;18.30;89.00
44565;DHT22;30275;51.822;-0.326;2022-10-16T12:49:56;18.30;91.40
44565;DHT22;30275;51.822;-0.326;2022-10-16T12:52:27;18.60;90.10
44565;DHT22;30275;51.822;-0.326;2022-10-16T12:54:56;18.50;87.80
44565;DHT22;30275;51.822;-0.326;2022-10-16T12:58:00;18.30;88.70
44565;DHT22;30275;51.822;-0.326;2022-10-16T13:00:44;18.40;90.20
44565;DHT22;30275;51.822;-0.326;2022-10-16T13:06:19;18.40;91.00
44565;DHT22;30275;51.822;-0.326;2022-10-16T13:12:11;18.40;91.30
44565;DHT22;30275;51.822;-0.326;2022-10-16T13:17:57;18.80;90.80
44565;DHT22;30275;51.822;-0.326;2022-10-16T13:20:35;18.70;90.50
44565;DHT22;30275;51.822;-0.326;2022-10-16T13:23:26;18.70;91.00
44565;DHT22;30275;51.822;-0.326;2022-10-16T13:26:00;18.40;91.10
44565;DHT22;30275;51.822;-0.326;2022-10-16T13:28:30;18.40;91.40
44565;DHT22;30275;51.822;-0.326;2022-10-16T13:30:59;18.70;91.10
44565;DHT22;30275;51.822;-0.326;2022-10-16T13:33:35;19.00;90.80
44565;DHT22;30275;51.822;-0.326;2022-10-16T13:36:02;19.20;91.10
44565;DHT22;30275;51.822;-0.326;2022-10-16T13:38:34;19.20;90.70
44565;DHT22;30275;51.822;-0.326;2022-10-16T13:41:02;19.00;91.50
44565;DHT22;30275;51.822;-0.326;2022-10-16T13:46:04;19.10;90.70
44565;DHT22;30275;51.822;-0.326;2022-10-16T13:48:32;18.90;89.60
44565;DHT22;30275;51.822;-0.326;2022-10-16T13:50:59;18.80;90.80
44565;DHT22;30275;51.822;-0.326;2022-10-16T13:53:25;18.50;91.00
44565;DHT22;30275;51.822;-0.326;2022-10-16T13:55:50;18.50;91.80
44565;DHT22;30275;51.822;-0.326;2022-10-16T13:58:16;18.40;90.90
44565;DHT22;30275;51.822;-0.326;2022-10-16T14:01:11;18.40;92.50
44565;DHT22;30275;51.822;-0.326;2022-10-16T14:03:41;18.40;91.60
44565;DHT22;30275;51.822;-0.326;2022-10-16T14:06:12;18.50;92.70
44565;DHT22;30275;51.822;-0.326;2022-10-16T14:08:43;18.50;92.00
44565;DHT22;30275;51.822;-0.326;2022-10-16T14:11:10;18.30;92.50
44565;DHT22;30275;51.822;-0.326;2022-10-16T14:13:45;18.40;92.50
44565;DHT22;30275;51.822;-0.326;2022-10-16T14:16:18;18.60;92.20
44565;DHT22;30275;51.822;-0.326;2022-10-16T14:18:49;18.50;90.90
44565;DHT22;30275;51.822;-0.326;2022-10-16T14:21:18;18.30;92.20
44565;DHT22;30275;51.822;-0.326;2022-10-16T14:23:44;18.30;91.70
44565;DHT22;30275;51.822;-0.326;2022-10-16T14:28:36;17.90;93.40
44565;DHT22;30275;51.822;-0.326;2022-10-16T14:31:33;18.20;94.30
44565;DHT22;30275;51.822;-0.326;2022-10-16T14:33:59;18.60;93.20
44565;DHT22;30275;51.822;-0.326;2022-10-16T14:36:27;18.80;93.30
44565;DHT22;30275;51.822;-0.326;2022-10-16T14:39:17;18.50;92.30
44565;DHT22;30275;51.822;-0.326;2022-10-16T14:41:47;18.40;92.90
44565;DHT22;30275;51.822;-0.326;2022-10-16T14:44:13;18.40;93.20
44565;DHT22;30275;51.822;-0.326;2022-10-16T14:46:41;18.50;92.70
44565;DHT22;30275;51.822;-0.326;2022-10-16T14:51:40;18.20;92.80
44565;DHT22;30275;51.822;-0.326;2022-10-16T14:54:11;17.80;93.30
44565;DHT22;30275;51.822;-0.326;2022-10-16T14:59:36;17.20;94.60
44565;DHT22;30275;51.822;-0.326;2022-10-16T15:04:43;16.50;96.60
44565;DHT22;30275;51.822;-0.326;2022-10-16T15:07:08;16.50;97.40
44565;DHT22;30275;51.822;-0.326;2022-10-16T15:09:34;16.20;96.90
44565;DHT22;30275;51.822;-0.326;2022-10-16T15:11:59;16.10;97.60
44565;DHT22;30275;51.822;-0.326;2022-10-16T15:14:25;16.00;98.30
44565;DHT22;30275;51.822;-0.326;2022-10-16T15:16:50;15.80;99.30
44565;DHT22;30275;51.822;-0.326;2022-10-16T15:19:16;15.70;98.60
44565;DHT22;30275;51.822;-0.326;2022-10-16T15:21:42;15.50;99.30
44565;DHT22;30275;51.822;-0.326;2022-10-16T15:24:12;15.50;99.90
44565;DHT22;30275;51.822;-0.326;2022-10-16T15:26:38;15.50;99.60
44565;DHT22;30275;51.822;-0.326;2022-10-16T15:29:04;15.50;99.20
44565;DHT22;30275;51.822;-0.326;2022-10-16T15:31:30;15.60;99.20
44565;DHT22;30275;51.822;-0.326;2022-10-16T15:33:56;15.60;99.10
44565;DHT22;30275;51.822;-0.326;2022-10-16T15:36:37;15.60;99.10
44565;DHT22;30275;51.822;-0.326;2022-10-16T15:39:04;15.60;99.20
44565;DHT22;30275;51.822;-0.326;2022-10-16T15:41:29;15.50;99.90
44565;DHT22;30275;51.822;-0.326;2022-10-16T15:43:55;15.40;99.90
44565;DHT22;30275;51.822;-0.326;2022-10-16T15:46:22;15.20;99.90
44565;DHT22;30275;51.822;-0.326;2022-10-16T15:48:56;15.10;99.90
44565;DHT22;30275;51.822;-0.326;2022-10-16T15:51:22;15.20;99.90
44565;DHT22;30275;51.822;-0.326;2022-10-16T15:53:47;15.10;99.90
44565;DHT22;30275;51.822;-0.326;2022-10-16T15:56:14;15.10;99.90
44565;DHT22;30275;51.822;-0.326;2022-10-16T15:58:39;15.00;99.90
44565;DHT22;30275;51.822;-0.326;2022-10-16T16:01:05;15.00;99.90
44565;DHT22;30275;51.822;-0.326;2022-10-16T16:03:31;15.00;99.90
44565;DHT22;30275;51.822;-0.326;2022-10-16T16:05:58;14.90;99.90
44565;DHT22;30275;51.822;-0.326;2022-10-16T16:08:23;14.90;99.90
44565;DHT22;30275;51.822;-0.326;2022-10-16T16:10:59;14.80;99.90
44565;DHT22;30275;51.822;-0.326;2022-10-16T16:13:25;14.80;99.90
44565;DHT22;30275;51.822;-0.326;2022-10-16T16:15:51;14.80;99.90
44565;DHT22;30275;51.822;-0.326;2022-10-16T16:18:16;14.80;99.90
44565;DHT22;30275;51.822;-0.326;2022-10-16T16:20:42;14.80;99.90
44565;DHT22;30275;51.822;-0.326;2022-10-16T16:23:07;14.70;99.90
44565;DHT22;30275;51.822;-0.326;2022-10-16T16:25:33;14.70;99.90
44565;DHT22;30275;51.822;-0.326;2022-10-16T16:27:59;14.60;99.90
44565;DHT22;30275;51.822;-0.326;2022-10-16T16:30:24;14.60;99.90
44565;DHT22;30275;51.822;-0.326;2022-10-16T16:32:50;14.60;99.90
44565;DHT22;30275;51.822;-0.326;2022-10-16T16:35:15;14.60;99.90
44565;DHT22;30275;51.822;-0.326;2022-10-16T16:37:41;14.60;99.90
44565;DHT22;30275;51.822;-0.326;2022-10-16T16:40:07;14.60;99.90
44565;DHT22;30275;51.822;-0.326;2022-10-16T16:42:32;14.60;99.90
44565;DHT22;30275;51.822;-0.326;2022-10-16T16:44:58;14.60;99.90
44565;DHT22;30275;51.822;-0.326;2022-10-16T16:47:24;14.60;99.90
44565;DHT22;30275;51.822;-0.326;2022-10-16T16:49:50;14.50;99.90
44565;DHT22;30275;51.822;-0.326;2022-10-16T16:52:17;14.60;99.90
44565;DHT22;30275;51.822;-0.326;2022-10-16T16:54:43;14.50;99.90
44565;DHT22;30275;51.822;-0.326;2022-10-16T16:57:10;14.50;99.90
44565;DHT22;30275;51.822;-0.326;2022-10-16T16:59:36;14.50;99.90
44565;DHT22;30275;51.822;-0.326;2022-10-16T17:02:02;14.50;99.90
44565;DHT22;30275;51.822;-0.326;2022-10-16T17:04:29;14.50;99.90
44565;DHT22;30275;51.822;-0.326;2022-10-16T17:06:55;14.50;99.90
44565;DHT22;30275;51.822;-0.326;2022-10-16T17:09:21;14.50;99.90
44565;DHT22;30275;51.822;-0.326;2022-10-16T17:11:47;14.50;99.90
44565;DHT22;30275;51.822;-0.326;2022-10-16T17:14:14;14.50;99.90
44565;DHT22;30275;51.822;-0.326;2022-10-16T17:16:40;14.50;99.90
44565;DHT22;30275;51.822;-0.326;2022-10-16T17:19:12;14.30;99.90
44565;DHT22;30275;51.822;-0.326;2022-10-16T17:21:38;14.20;99.90
44565;DHT22;30275;51.822;-0.326;2022-10-16T17:24:05;14.10;99.90
44565;DHT22;30275;51.822;-0.326;2022-10-16T17:26:31;14.00;99.90